createdAt,value
2019-05-05T00:01:39.545Z,3.97
2019-05-05T00:04:24.248Z,3.96
2019-05-05T00:06:50.165Z,3.96
2019-05-05T00:09:16.066Z,3.95
2019-05-05T00:11:56.068Z,3.94
2019-05-05T00:14:24.582Z,3.92
2019-05-05T00:16:54.551Z,3.90
2019-05-05T00:19:30.640Z,3.89
2019-05-05T00:21:47.902Z,3.88
2019-05-05T00:24:15.175Z,3.87
2019-05-05T00:26:41.344Z,3.85
2019-05-05T00:29:07.299Z,3.82
2019-05-05T00:31:34.922Z,3.80
2019-05-05T00:34:00.943Z,3.77
2019-05-05T00:36:26.929Z,3.75
2019-05-05T00:38:54.992Z,3.73
2019-05-05T00:41:20.477Z,3.72
2019-05-05T00:43:46.360Z,3.69
2019-05-05T00:46:16.331Z,3.65
2019-05-05T00:48:44.479Z,3.62
2019-05-05T00:51:10.467Z,3.58
2019-05-05T00:53:36.372Z,3.54
2019-05-05T00:56:02.430Z,3.50
2019-05-05T00:58:29.891Z,3.48
2019-05-05T01:00:57.659Z,3.39
2019-05-05T01:03:24.864Z,3.34
2019-05-05T01:06:07.409Z,3.11
2019-05-05T01:08:35.295Z,3.30
2019-05-05T01:11:00.977Z,3.29
2019-05-05T01:13:26.828Z,3.28
2019-05-05T01:15:54.227Z,3.26
2019-05-05T01:18:20.099Z,3.24
2019-05-05T01:20:46.076Z,3.21
2019-05-05T01:23:12.131Z,3.19
2019-05-05T01:25:38.074Z,3.15
2019-05-05T01:28:04.995Z,3.12
2019-05-05T01:30:34.986Z,3.08
2019-05-05T01:33:19.302Z,3.05
2019-05-05T01:35:45.385Z,3.04
2019-05-05T01:38:31.194Z,3.01
2019-05-05T01:41:01.712Z,2.99
2019-05-05T01:43:27.694Z,2.95
2019-05-05T01:45:54.627Z,2.93
2019-05-05T01:48:20.893Z,2.91
2019-05-05T01:50:46.920Z,2.88
2019-05-05T01:53:12.795Z,2.85
2019-05-05T01:55:39.070Z,2.83
2019-05-05T01:58:05.088Z,2.78
2019-05-05T02:00:30.943Z,2.72
2019-05-05T02:02:56.938Z,2.66
2019-05-05T02:05:24.214Z,2.62
2019-05-05T02:07:50.218Z,2.57
2019-05-05T02:10:16.366Z,2.51
2019-05-05T02:12:44.494Z,2.45
2019-05-05T02:15:10.276Z,2.43
2019-05-05T02:17:36.372Z,2.41
2019-05-05T02:20:05.212Z,2.39
2019-05-05T02:22:30.842Z,2.38
2019-05-05T02:24:56.828Z,2.36
2019-05-05T02:27:25.004Z,2.35
2019-05-05T02:29:55.222Z,2.35
2019-05-05T02:32:36.113Z,2.33
2019-05-05T02:35:06.430Z,2.30
2019-05-05T02:37:32.174Z,2.26
2019-05-05T02:40:03.330Z,2.22
2019-05-05T02:42:26.261Z,2.21
2019-05-05T02:44:54.371Z,2.19
2019-05-05T02:47:36.658Z,2.15
2019-05-05T02:50:05.414Z,2.16
2019-05-05T02:52:34.527Z,2.15
2019-05-05T02:54:59.932Z,2.15
2019-05-05T02:57:25.908Z,2.14
2019-05-05T02:59:59.682Z,2.14
2019-05-05T03:02:27.776Z,2.13
2019-05-05T03:04:53.772Z,2.13
2019-05-05T03:07:21.524Z,2.11
2019-05-05T03:09:48.399Z,2.11
2019-05-05T03:12:15.646Z,2.10
2019-05-05T03:14:44.590Z,2.09
2019-05-05T03:17:11.396Z,2.07
2019-05-05T03:19:37.822Z,2.05
2019-05-05T03:22:03.802Z,2.02
2019-05-05T03:24:30.411Z,2.01
2019-05-05T03:26:56.393Z,2.01
2019-05-05T03:29:24.394Z,2.00
2019-05-05T03:31:50.601Z,1.99
2019-05-05T03:34:17.188Z,1.97
2019-05-05T03:36:44.187Z,1.98
2019-05-05T03:39:13.941Z,1.99
2019-05-05T03:41:43.701Z,1.98
2019-05-05T03:44:30.023Z,1.97
2019-05-05T03:46:56.183Z,1.95
2019-05-05T03:49:24.270Z,1.93
2019-05-05T03:51:50.212Z,1.93
2019-05-05T03:54:16.965Z,1.94
2019-05-05T03:56:44.158Z,1.95
2019-05-05T03:59:10.363Z,1.93
2019-05-05T04:01:38.238Z,1.93
2019-05-05T04:04:25.438Z,1.94
2019-05-05T04:06:56.365Z,1.96
2019-05-05T04:09:24.285Z,1.98
2019-05-05T04:11:50.414Z,1.98
2019-05-05T04:14:18.422Z,2.00
2019-05-05T04:17:03.537Z,2.01
2019-05-05T04:19:37.242Z,2.03
2019-05-05T04:22:04.260Z,2.06
2019-05-05T04:24:30.298Z,2.09
2019-05-05T04:26:56.264Z,2.13
2019-05-05T04:29:24.264Z,2.16
2019-05-05T04:31:50.059Z,2.18
2019-05-05T04:34:15.922Z,2.22
2019-05-05T04:36:41.891Z,2.27
2019-05-05T04:39:07.784Z,2.32
2019-05-05T04:41:34.031Z,2.35
2019-05-05T04:43:59.911Z,2.40
2019-05-05T04:46:25.928Z,2.46
2019-05-05T04:48:54.446Z,2.49
2019-05-05T04:51:24.869Z,2.53
2019-05-05T04:54:04.680Z,2.58
2019-05-05T04:56:30.744Z,2.61
2019-05-05T04:58:56.710Z,2.64
2019-05-05T05:01:24.148Z,2.69
2019-05-05T05:03:54.599Z,2.73
2019-05-05T05:06:23.693Z,2.77
2019-05-05T05:08:49.654Z,2.82
2019-05-05T05:11:15.612Z,2.86
2019-05-05T05:13:41.494Z,2.90
2019-05-05T05:16:07.475Z,2.90
2019-05-05T05:18:34.350Z,2.86
2019-05-05T05:21:00.397Z,2.86
2019-05-05T05:23:26.288Z,2.86
2019-05-05T05:25:54.247Z,2.90
2019-05-05T05:28:19.810Z,2.93
2019-05-05T05:30:45.797Z,2.97
2019-05-05T05:33:11.760Z,3.02
2019-05-05T05:35:37.614Z,3.07
2019-05-05T05:38:04.614Z,3.10
2019-05-05T05:40:41.287Z,3.14
2019-05-05T05:43:09.085Z,3.18
2019-05-05T05:45:48.751Z,3.24
2019-05-05T05:48:19.435Z,3.28
2019-05-05T05:50:50.149Z,3.34
2019-05-05T05:53:16.013Z,3.36
2019-05-05T05:55:41.917Z,3.39
2019-05-05T05:58:07.801Z,3.39
2019-05-05T06:00:34.347Z,3.42
2019-05-05T06:03:00.440Z,3.46
2019-05-05T06:05:26.329Z,3.51
2019-05-05T06:07:54.270Z,3.55
2019-05-05T06:10:24.302Z,3.58
2019-05-05T06:12:47.825Z,3.65
2019-05-05T06:15:14.197Z,3.72
2019-05-05T06:17:40.289Z,3.81
2019-05-05T06:20:06.372Z,3.88
2019-05-05T06:22:34.397Z,3.98
2019-05-05T06:25:00.031Z,4.06
2019-05-05T06:27:25.861Z,4.13
2019-05-05T06:29:51.743Z,4.21
2019-05-05T06:32:17.718Z,4.31
2019-05-05T06:34:44.313Z,4.39
2019-05-05T06:37:10.477Z,4.47
2019-05-05T06:39:36.384Z,4.56
2019-05-05T06:42:04.555Z,4.65
2019-05-05T06:44:33.848Z,4.71
2019-05-05T06:47:07.837Z,4.77
2019-05-05T06:49:34.555Z,4.81
2019-05-05T06:52:00.628Z,4.87
2019-05-05T06:54:26.624Z,4.94
2019-05-05T06:56:53.877Z,4.98
2019-05-05T06:59:21.206Z,5.02
2019-05-05T07:01:47.112Z,5.07
2019-05-05T07:04:13.969Z,5.12
2019-05-05T07:06:51.665Z,5.18
2019-05-05T07:09:07.868Z,5.23
2019-05-05T07:11:34.253Z,5.29
2019-05-05T07:14:00.230Z,5.14
2019-05-05T07:16:26.336Z,5.37
2019-05-05T07:18:53.941Z,5.43
2019-05-05T07:21:19.937Z,5.50
2019-05-05T07:23:45.819Z,5.55
2019-05-05T07:26:11.664Z,5.60
2019-05-05T07:28:37.552Z,5.64
2019-05-05T07:31:04.473Z,5.67
2019-05-05T07:33:30.461Z,5.70
2019-05-05T07:36:06.104Z,5.75
2019-05-05T07:38:33.709Z,5.79
2019-05-05T07:40:59.810Z,5.82
2019-05-05T07:43:25.677Z,5.86
2019-05-05T07:45:53.871Z,5.88
2019-05-05T07:48:19.367Z,5.92
2019-05-05T07:50:58.189Z,5.98
2019-05-05T07:53:17.582Z,6.01
2019-05-05T07:55:40.897Z,6.05
2019-05-05T07:58:06.872Z,6.09
2019-05-05T08:00:34.302Z,6.14
2019-05-05T08:03:00.271Z,6.21
2019-05-05T08:05:26.144Z,6.19
2019-05-05T08:07:53.933Z,6.28
2019-05-05T08:10:19.893Z,6.33
2019-05-05T08:12:45.762Z,6.37
2019-05-05T08:15:12.115Z,6.42
2019-05-05T08:17:58.068Z,6.45
2019-05-05T08:20:28.625Z,6.50
2019-05-05T08:22:54.572Z,6.56
2019-05-05T08:25:39.244Z,6.60
2019-05-05T08:27:57.764Z,6.60
2019-05-05T08:30:28.432Z,6.62
2019-05-05T08:32:54.676Z,6.65
2019-05-05T08:35:20.646Z,6.71
2019-05-05T08:37:46.483Z,6.76
2019-05-05T08:40:14.664Z,6.81
2019-05-05T08:42:40.301Z,6.85
2019-05-05T08:45:06.373Z,6.91
2019-05-05T08:47:34.443Z,6.96
2019-05-05T08:50:00.117Z,6.99
2019-05-05T08:52:26.144Z,7.05
2019-05-05T08:54:53.978Z,7.09
2019-05-05T08:57:19.876Z,7.13
2019-05-05T08:59:45.723Z,7.19
2019-05-05T09:02:11.592Z,7.29
2019-05-05T09:04:37.566Z,7.38
2019-05-05T09:07:05.006Z,7.40
2019-05-05T09:09:31.002Z,7.41
2019-05-05T09:11:57.096Z,7.39
2019-05-05T09:14:24.029Z,7.36
2019-05-05T09:16:50.264Z,7.33
2019-05-05T09:19:18.215Z,7.29
2019-05-05T09:21:44.763Z,7.25
2019-05-05T09:24:29.151Z,7.26
2019-05-05T09:27:09.035Z,7.30
2019-05-05T09:29:39.802Z,7.40
2019-05-05T09:32:05.748Z,7.51
2019-05-05T09:34:31.601Z,7.66
2019-05-05T09:36:57.778Z,7.80
2019-05-05T09:39:23.997Z,7.87
2019-05-05T09:41:49.899Z,7.88
2019-05-05T09:44:15.963Z,7.91
2019-05-05T09:46:41.876Z,7.92
2019-05-05T09:49:07.950Z,7.89
2019-05-05T09:51:34.722Z,7.86
2019-05-05T09:54:11.936Z,7.82
2019-05-05T09:56:28.905Z,7.77
2019-05-05T09:58:55.070Z,7.76
2019-05-05T10:01:20.925Z,7.77
2019-05-05T10:03:46.800Z,7.80
2019-05-05T10:06:14.255Z,7.79
2019-05-05T10:08:40.317Z,7.88
2019-05-05T10:11:06.296Z,8.16
2019-05-05T10:13:33.639Z,8.42
2019-05-05T10:15:59.655Z,8.66
2019-05-05T10:18:25.596Z,8.85
2019-05-05T10:20:51.462Z,9.01
2019-05-05T10:23:17.320Z,9.11
2019-05-05T10:25:45.086Z,9.16
2019-05-05T10:28:11.051Z,9.13
2019-05-05T10:30:37.149Z,9.07
2019-05-05T10:33:03.758Z,8.94
2019-05-05T10:35:34.260Z,8.77
2019-05-05T10:37:59.695Z,8.70
2019-05-05T10:40:30.337Z,8.63
2019-05-05T10:42:56.266Z,8.55
2019-05-05T10:45:24.231Z,8.56
2019-05-05T10:47:50.342Z,8.64
2019-05-05T10:50:16.311Z,8.76
2019-05-05T10:52:44.176Z,8.87
2019-05-05T10:55:10.372Z,9.02
2019-05-05T10:57:36.267Z,9.16
2019-05-05T11:00:12.318Z,9.36
2019-05-05T11:02:31.306Z,9.50
2019-05-05T11:04:57.325Z,9.61
2019-05-05T11:07:23.608Z,9.77
2019-05-05T11:09:49.638Z,10.00
2019-05-05T11:12:15.769Z,10.19
2019-05-05T11:14:41.612Z,10.31
2019-05-05T11:17:07.563Z,10.38
2019-05-05T11:19:33.817Z,10.38
2019-05-05T11:21:59.826Z,10.36
2019-05-05T11:24:25.706Z,10.35
2019-05-05T11:26:53.820Z,10.43
2019-05-05T11:29:19.272Z,10.62
2019-05-05T11:31:47.038Z,10.80
2019-05-05T11:34:17.598Z,10.90
2019-05-05T11:36:57.343Z,10.97
2019-05-05T11:39:23.608Z,10.94
2019-05-05T11:41:49.605Z,10.82
2019-05-05T11:44:15.500Z,10.76
2019-05-05T11:46:41.457Z,10.80
2019-05-05T11:49:07.313Z,10.72
2019-05-05T11:51:34.167Z,10.56
2019-05-05T11:54:00.305Z,10.40
2019-05-05T11:56:26.299Z,10.26
2019-05-05T11:58:52.191Z,10.10
2019-05-05T12:01:18.233Z,10.01
2019-05-05T12:03:44.543Z,10.04
2019-05-05T12:06:10.413Z,10.10
2019-05-05T12:08:36.509Z,10.12
2019-05-05T12:11:04.638Z,10.07
2019-05-05T12:13:30.589Z,10.05
2019-05-05T12:16:00.469Z,10.06
2019-05-05T12:18:26.491Z,10.07
2019-05-05T12:20:54.264Z,10.03
2019-05-05T12:23:20.293Z,9.88
2019-05-05T12:25:48.195Z,9.76
2019-05-05T12:28:18.817Z,9.67
2019-05-05T12:30:44.848Z,9.60
2019-05-05T12:33:10.838Z,9.59
2019-05-05T12:35:36.728Z,9.53
2019-05-05T12:38:02.844Z,9.49
2019-05-05T12:40:28.708Z,9.54
2019-05-05T12:42:54.585Z,9.66
2019-05-05T12:45:24.062Z,9.87
2019-05-05T12:48:08.385Z,10.08
2019-05-05T12:50:34.499Z,10.18
2019-05-05T12:53:00.377Z,10.15
2019-05-05T12:55:40.574Z,10.05
2019-05-05T12:57:54.172Z,9.92
2019-05-05T13:00:20.677Z,9.79
2019-05-05T13:02:46.532Z,9.65
2019-05-05T13:05:14.497Z,9.60
2019-05-05T13:07:40.469Z,9.71
2019-05-05T13:10:06.825Z,9.90
2019-05-05T13:12:34.423Z,10.14
2019-05-05T13:15:00.505Z,10.35
2019-05-05T13:17:26.464Z,10.51
2019-05-05T13:19:57.300Z,10.55
2019-05-05T13:22:25.542Z,10.62
2019-05-05T13:24:56.212Z,10.64
2019-05-05T13:27:29.970Z,10.61
2019-05-05T13:29:55.811Z,10.62
2019-05-05T13:32:21.664Z,10.63
2019-05-05T13:34:47.832Z,10.64
2019-05-05T13:37:14.186Z,10.68
2019-05-05T13:39:40.140Z,10.65
2019-05-05T13:42:06.101Z,10.63
2019-05-05T13:44:36.737Z,10.58
2019-05-05T13:47:01.642Z,10.56
2019-05-05T13:49:29.433Z,10.56
2019-05-05T13:51:57.208Z,10.59
2019-05-05T13:54:24.263Z,10.61
2019-05-05T13:56:50.516Z,10.65
2019-05-05T13:59:16.644Z,10.67
2019-05-05T14:01:44.600Z,10.64
2019-05-05T14:04:10.257Z,10.65
2019-05-05T14:06:36.205Z,10.70
2019-05-05T14:09:04.340Z,10.70
2019-05-05T14:11:30.437Z,10.66
2019-05-05T14:13:56.297Z,10.61
2019-05-05T14:16:22.152Z,10.54
2019-05-05T14:18:48.328Z,10.55
2019-05-05T14:21:14.200Z,10.57
2019-05-05T14:23:54.491Z,10.58
2019-05-05T14:26:25.607Z,10.53
2019-05-05T14:28:48.212Z,10.47
2019-05-05T14:31:16.103Z,10.41
2019-05-05T14:33:54.225Z,10.28
2019-05-05T14:36:24.357Z,10.17
2019-05-05T14:38:53.787Z,10.10
2019-05-05T14:41:19.474Z,10.02
2019-05-05T14:43:45.502Z,9.96
2019-05-05T14:46:11.560Z,9.82
2019-05-05T14:48:37.432Z,9.63
2019-05-05T14:51:04.028Z,9.48
2019-05-05T14:53:30.029Z,9.45
2019-05-05T14:55:58.146Z,9.48
2019-05-05T14:58:25.197Z,9.47
2019-05-05T15:00:51.045Z,9.54
2019-05-05T15:03:17.062Z,9.68
2019-05-05T15:05:44.852Z,9.85
2019-05-05T15:08:15.228Z,10.07
2019-05-05T15:10:59.672Z,10.20
2019-05-05T15:13:25.533Z,10.27
2019-05-05T15:15:51.397Z,10.34
2019-05-05T15:18:17.540Z,10.40
2019-05-05T15:20:44.041Z,10.35
2019-05-05T15:23:10.064Z,10.14
2019-05-05T15:25:36.195Z,10.10
2019-05-05T15:28:02.266Z,10.14
2019-05-05T15:30:28.223Z,10.22
2019-05-05T15:32:54.267Z,10.26
2019-05-05T15:35:20.433Z,10.26
2019-05-05T15:37:46.363Z,10.28
2019-05-05T15:40:14.285Z,10.29
2019-05-05T15:42:40.247Z,10.19
2019-05-05T15:45:06.408Z,10.18
2019-05-05T15:47:34.316Z,10.18
2019-05-05T15:50:00.218Z,10.19
2019-05-05T15:52:26.226Z,10.21
2019-05-05T15:54:53.961Z,10.28
2019-05-05T15:57:20.008Z,10.25
2019-05-05T15:59:46.052Z,10.11
2019-05-05T16:02:13.362Z,10.07
2019-05-05T16:04:39.389Z,10.07
2019-05-05T16:07:05.367Z,9.99
2019-05-05T16:09:31.428Z,9.96
2019-05-05T16:11:57.375Z,9.96
2019-05-05T16:14:23.874Z,10.00
2019-05-05T16:17:00.598Z,10.06
2019-05-05T16:19:34.226Z,10.04
2019-05-05T16:22:10.485Z,9.99
2019-05-05T16:24:38.222Z,9.91
2019-05-05T16:27:17.789Z,9.76
2019-05-05T16:29:33.593Z,9.67
2019-05-05T16:31:59.520Z,9.65
2019-05-05T16:34:25.493Z,9.64
2019-05-05T16:36:51.649Z,9.55
2019-05-05T16:39:17.522Z,9.46
2019-05-05T16:41:43.510Z,9.35
2019-05-05T16:44:09.282Z,9.20
2019-05-05T16:46:35.251Z,9.07
2019-05-05T16:49:01.235Z,8.94
2019-05-05T16:51:29.010Z,8.92
2019-05-05T16:53:56.626Z,8.93
2019-05-05T16:56:26.842Z,8.97
2019-05-05T16:58:52.966Z,8.99
2019-05-05T17:01:18.983Z,8.96
2019-05-05T17:03:45.774Z,8.89
2019-05-05T17:06:14.044Z,8.82
2019-05-05T17:08:40.027Z,8.81
2019-05-05T17:11:05.975Z,8.78
2019-05-05T17:13:50.049Z,8.72
2019-05-05T17:16:26.824Z,8.68
2019-05-05T17:18:54.743Z,8.65
2019-05-05T17:21:25.196Z,8.63
2019-05-05T17:23:51.178Z,8.60
2019-05-05T17:26:17.305Z,8.57
2019-05-05T17:28:44.363Z,8.53
2019-05-05T17:31:10.400Z,8.50
2019-05-05T17:33:38.406Z,8.46
2019-05-05T17:36:04.634Z,8.43
2019-05-05T17:38:30.617Z,8.40
2019-05-05T17:40:58.517Z,8.34
2019-05-05T17:43:35.103Z,8.28
2019-05-05T17:46:03.856Z,8.19
2019-05-05T17:48:49.539Z,8.13
2019-05-05T17:51:31.283Z,8.08
2019-05-05T17:53:58.742Z,8.02
2019-05-05T17:56:24.700Z,7.98
2019-05-05T17:58:50.688Z,7.93
2019-05-05T18:01:16.754Z,7.90
2019-05-05T18:03:43.643Z,7.86
2019-05-05T18:06:11.632Z,7.82
2019-05-05T18:08:42.047Z,7.79
2019-05-05T18:11:13.934Z,7.74
2019-05-05T18:13:45.116Z,7.68
2019-05-05T18:16:11.077Z,7.64
2019-05-05T18:18:37.282Z,7.51
2019-05-05T18:21:03.175Z,7.42
2019-05-05T18:23:31.258Z,7.36
2019-05-05T18:25:57.341Z,7.32
2019-05-05T18:28:24.705Z,7.24
2019-05-05T18:30:50.595Z,7.19
2019-05-05T18:33:17.321Z,7.11
2019-05-05T18:35:44.427Z,7.04
2019-05-05T18:38:10.468Z,7.02
2019-05-05T18:40:36.534Z,7.00
2019-05-05T18:43:04.394Z,6.99
2019-05-05T18:45:30.255Z,6.97
2019-05-05T18:47:56.231Z,6.93
2019-05-05T18:50:24.253Z,6.85
2019-05-05T18:52:49.899Z,6.79
2019-05-05T18:55:15.853Z,6.76
2019-05-05T18:57:43.379Z,6.73
2019-05-05T19:00:13.817Z,6.70
2019-05-05T19:02:41.576Z,6.65
2019-05-05T19:05:18.620Z,6.64
2019-05-05T19:07:55.239Z,6.63
2019-05-05T19:10:15.325Z,6.61
2019-05-05T19:12:41.399Z,6.60
2019-05-05T19:15:07.533Z,6.57
2019-05-05T19:17:34.544Z,6.55
2019-05-05T19:20:04.295Z,6.57
2019-05-05T19:22:30.287Z,6.57
2019-05-05T19:24:59.058Z,6.55
2019-05-05T19:27:25.235Z,6.56
2019-05-05T19:29:51.291Z,6.55
2019-05-05T19:32:17.457Z,6.55
2019-05-05T19:34:43.914Z,6.53
2019-05-05T19:37:10.077Z,6.52
2019-05-05T19:39:35.960Z,6.51
2019-05-05T19:42:01.862Z,6.50
2019-05-05T19:44:28.007Z,6.50
2019-05-05T19:46:55.753Z,6.49
2019-05-05T19:49:21.627Z,6.48
2019-05-05T19:51:48.121Z,6.47
2019-05-05T19:54:14.459Z,6.46
2019-05-05T19:56:40.559Z,6.45
2019-05-05T19:59:06.576Z,6.44
2019-05-05T20:01:37.082Z,6.44
2019-05-05T20:04:00.423Z,6.44
2019-05-05T20:06:26.414Z,6.44
2019-05-05T20:08:53.663Z,6.42
2019-05-05T20:11:19.754Z,6.41
2019-05-05T20:13:45.646Z,6.39
2019-05-05T20:16:22.152Z,6.36
2019-05-05T20:18:50.170Z,6.33
2019-05-05T20:21:15.898Z,6.29
2019-05-05T20:23:43.642Z,6.26
2019-05-05T20:26:09.696Z,6.27
2019-05-05T20:28:35.694Z,6.27
2019-05-05T20:31:03.454Z,6.25
2019-05-05T20:33:31.227Z,6.25
2019-05-05T20:36:16.705Z,6.25
2019-05-05T20:38:44.767Z,6.24
2019-05-05T20:41:14.190Z,6.23
2019-05-05T20:43:40.400Z,6.23
2019-05-05T20:46:06.540Z,6.24
2019-05-05T20:48:34.099Z,6.23
2019-05-05T20:51:00.076Z,6.23
2019-05-05T20:53:26.113Z,6.23
2019-05-05T20:55:54.295Z,6.23
2019-05-05T20:58:19.793Z,6.20
2019-05-05T21:00:45.928Z,6.18
2019-05-05T21:03:14.046Z,6.16
2019-05-05T21:05:39.777Z,6.12
2019-05-05T21:08:05.879Z,6.09
2019-05-05T21:10:31.823Z,6.06
2019-05-05T21:12:57.717Z,6.03
2019-05-05T21:15:24.662Z,6.01
2019-05-05T21:17:53.947Z,5.97
2019-05-05T21:20:19.687Z,5.96
2019-05-05T21:22:47.959Z,5.94
2019-05-05T21:25:30.720Z,5.92
2019-05-05T21:27:56.780Z,5.89
2019-05-05T21:30:23.819Z,5.87
2019-05-05T21:32:49.845Z,5.86
2019-05-05T21:35:15.781Z,5.85
2019-05-05T21:37:41.662Z,5.83
2019-05-05T21:40:07.645Z,5.82
2019-05-05T21:42:34.969Z,5.82
2019-05-05T21:45:01.051Z,5.81
2019-05-05T21:47:26.922Z,5.80
2019-05-05T21:49:54.232Z,5.78
2019-05-05T21:52:25.115Z,5.77
2019-05-05T21:54:55.743Z,5.77
2019-05-05T21:57:40.141Z,5.77
2019-05-05T22:00:07.029Z,5.77
2019-05-05T22:02:34.507Z,5.77
2019-05-05T22:05:00.597Z,5.77
2019-05-05T22:07:26.816Z,5.75
2019-05-05T22:09:54.457Z,5.74
2019-05-05T22:12:20.425Z,5.75
2019-05-05T22:14:46.368Z,5.72
2019-05-05T22:17:14.500Z,5.70
2019-05-05T22:19:42.028Z,5.68
2019-05-05T22:22:10.051Z,5.67
2019-05-05T22:24:36.544Z,5.68
2019-05-05T22:27:04.552Z,5.68
2019-05-05T22:29:30.199Z,5.68
2019-05-05T22:31:56.176Z,5.67
2019-05-05T22:34:23.924Z,5.69
2019-05-05T22:36:49.967Z,5.69
2019-05-05T22:39:17.120Z,5.68
2019-05-05T22:41:44.527Z,5.69
2019-05-05T22:44:10.636Z,5.68
2019-05-05T22:46:36.723Z,5.70
2019-05-05T22:49:03.908Z,5.72
2019-05-05T22:51:29.972Z,5.72
2019-05-05T22:53:55.959Z,5.72
2019-05-05T22:56:24.012Z,5.72
2019-05-05T22:58:49.708Z,5.71
2019-05-05T23:01:15.691Z,5.69
2019-05-05T23:04:00.138Z,5.66
2019-05-05T23:06:33.545Z,5.65
2019-05-05T23:08:59.743Z,5.63
2019-05-05T23:11:25.910Z,5.64
2019-05-05T23:13:53.800Z,5.64
2019-05-05T23:16:27.632Z,5.64
2019-05-05T23:18:54.673Z,5.64
2019-05-05T23:21:24.715Z,5.65
2019-05-05T23:23:56.048Z,5.64
2019-05-05T23:26:31.029Z,5.67
2019-05-05T23:28:57.174Z,5.68
2019-05-05T23:31:24.127Z,5.70
2019-05-05T23:33:50.194Z,5.73
2019-05-05T23:36:16.197Z,5.73
2019-05-05T23:38:42.198Z,5.76
2019-05-05T23:41:08.157Z,5.77
2019-05-05T23:43:34.564Z,5.78
2019-05-05T23:46:00.609Z,5.77
2019-05-05T23:48:27.096Z,5.78
2019-05-05T23:50:54.172Z,5.80
2019-05-05T23:53:20.258Z,5.78
2019-05-05T23:55:46.233Z,5.78
2019-05-05T23:58:14.274Z,5.79
